Time;durP1;ratioP1;P1;durP2;ratioP2;P2;SDS_P1;SDS_P2;PMS_P1;PMS_P2;Temp;Humidity;BMP_temperature;BMP_pressure;BME280_temperature;BME280_humidity;BME280_pressure;Samples;Min_cycle;Max_cycle;Signal;HPM_P1;HPM_P2
2021/11/29 00:00:25;;;;;;;14.57;8.45;;;;;;;-1.36;100.00;96870.19;4210563;27;20027;-71
2021/11/29 00:02:26;;;;;;;14.38;8.82;;;;;;;-1.43;100.00;96866.09;4219022;27;20525;-71
2021/11/29 00:04:27;;;;;;;13.02;8.05;;;;;;;-1.44;100.00;96869.97;4211935;27;20047;-71
2021/11/29 00:06:27;;;;;;;16.80;8.77;;;;;;;-1.48;100.00;96869.06;4212049;28;20047;-71
2021/11/29 00:08:28;;;;;;;19.15;9.35;;;;;;;-1.46;100.00;96874.16;4210820;27;20055;-71
2021/11/29 00:10:29;;;;;;;16.95;8.75;;;;;;;-1.51;100.00;96877.88;4208874;27;20040;-71
2021/11/29 00:12:30;;;;;;;17.75;8.88;;;;;;;-1.46;100.00;96877.66;4208015;28;20040;-71
2021/11/29 00:14:30;;;;;;;14.90;8.68;;;;;;;-1.49;100.00;96869.38;4209147;27;20049;-71
2021/11/29 00:16:31;;;;;;;14.35;8.02;;;;;;;-1.52;100.00;96873.56;4209546;27;20379;-71
2021/11/29 00:18:32;;;;;;;16.73;8.75;;;;;;;-1.55;100.00;96884.31;4208965;27;20047;-71
2021/11/29 00:20:33;;;;;;;13.63;8.43;;;;;;;-1.53;100.00;96885.56;4207794;27;20050;-71
2021/11/29 00:22:33;;;;;;;12.88;8.45;;;;;;;-1.54;100.00;96880.47;4218826;27;20109;-71
2021/11/29 00:24:34;;;;;;;14.43;7.57;;;;;;;-1.55;100.00;96889.75;4211702;27;20399;-72
2021/11/29 00:26:34;;;;;;;13.90;7.95;;;;;;;-1.59;100.00;96889.59;4206497;27;20032;-71
2021/11/29 00:28:35;;;;;;;15.40;8.30;;;;;;;-1.59;100.00;96891.53;4206702;27;20051;-71
2021/11/29 00:30:37;;;;;;;15.10;7.55;;;;;;;-1.60;100.00;96898.09;4209084;27;20196;-71
2021/11/29 00:32:39;;;;;;;12.40;7.63;;;;;;;-1.57;100.00;96890.09;4206969;27;20150;-71
2021/11/29 00:34:39;;;;;;;13.57;7.65;;;;;;;-1.54;100.00;96886.69;4207964;27;20274;-71
2021/11/29 00:36:40;;;;;;;13.68;8.05;;;;;;;-1.55;100.00;96889.75;4210580;27;20258;-71
2021/11/29 00:38:42;;;;;;;12.95;8.10;;;;;;;-1.58;100.00;96898.53;4207128;27;20036;-71
2021/11/29 00:40:43;;;;;;;15.93;8.27;;;;;;;-1.61;100.00;96891.09;4207981;27;20488;-71
2021/11/29 00:42:43;;;;;;;13.90;8.35;;;;;;;-1.62;100.00;96890.28;4212211;27;20272;-71
2021/11/29 00:44:44;;;;;;;13.27;7.47;;;;;;;-1.63;100.00;96893.34;4208490;27;20404;-71
2021/11/29 00:46:44;;;;;;;14.82;9.10;;;;;;;-1.64;100.00;96897.97;4208316;27;20105;-71
2021/11/29 00:48:45;;;;;;;19.63;9.07;;;;;;;-1.67;100.00;96895.13;4206645;27;20036;-71
2021/11/29 00:50:45;;;;;;;18.10;8.27;;;;;;;-1.69;100.00;96895.47;4208962;27;20387;-71
2021/11/29 00:52:46;;;;;;;13.75;8.45;;;;;;;-1.67;100.00;96892.41;4209883;27;20054;-71
2021/11/29 00:54:46;;;;;;;15.77;8.13;;;;;;;-1.67;100.00;96901.34;4208162;27;20051;-71
2021/11/29 00:56:47;;;;;;;17.70;8.70;;;;;;;-1.66;100.00;96907.56;4209552;27;20295;-71
2021/11/29 00:58:48;;;;;;;16.65;8.88;;;;;;;-1.70;100.00;96905.53;4209578;27;20403;-71
2021/11/29 01:00:49;;;;;;;16.42;8.63;;;;;;;-1.70;100.00;96907.44;4207339;27;20035;-71
2021/11/29 01:02:50;;;;;;;16.02;7.93;;;;;;;-1.68;100.00;96904.41;4208071;27;20488;-71
2021/11/29 01:04:50;;;;;;;16.33;9.50;;;;;;;-1.67;100.00;96914.13;4207811;27;20110;-71
2021/11/29 01:06:51;;;;;;;16.38;8.88;;;;;;;-1.67;100.00;96911.41;4208738;27;20488;-71
2021/11/29 01:08:51;;;;;;;16.15;8.93;;;;;;;-1.67;100.00;96909.47;4204878;28;20126;-71
2021/11/29 01:10:52;;;;;;;17.75;8.77;;;;;;;-1.67;100.00;96912.19;4210083;27;20044;-71
2021/11/29 01:12:52;;;;;;;16.70;8.95;;;;;;;-1.64;100.00;96916.97;4205872;28;20466;-71
2021/11/29 01:14:53;;;;;;;15.85;8.57;;;;;;;-1.66;100.00;96915.69;4209168;28;20767;-71
2021/11/29 01:16:53;;;;;;;16.02;9.48;;;;;;;-1.65;100.00;96914.59;4210164;28;20052;-71
2021/11/29 01:18:54;;;;;;;19.08;9.68;;;;;;;-1.63;100.00;96915.84;4206056;28;20187;-71
2021/11/29 01:20:54;;;;;;;18.08;9.15;;;;;;;-1.62;100.00;96912.00;4207492;28;20044;-71
2021/11/29 01:22:55;;;;;;;17.60;9.80;;;;;;;-1.57;100.00;96922.63;4208112;28;20043;-71
2021/11/29 01:24:55;;;;;;;16.77;9.68;;;;;;;-1.59;100.00;96914.00;4206625;27;20740;-71
2021/11/29 01:26:56;;;;;;;17.65;10.55;;;;;;;-1.58;100.00;96918.31;4212669;27;20048;-71
2021/11/29 01:28:56;;;;;;;15.63;9.30;;;;;;;-1.52;100.00;96916.97;4209542;28;20048;-71
2021/11/29 01:30:57;;;;;;;17.88;9.63;;;;;;;-1.47;100.00;96926.81;4209548;27;20044;-71
2021/11/29 01:32:58;;;;;;;18.73;9.88;;;;;;;-1.49;100.00;96921.75;4213141;27;20047;-71
2021/11/29 01:34:58;;;;;;;19.83;10.80;;;;;;;-1.51;100.00;96923.19;4210504;27;20467;-72
2021/11/29 01:36:59;;;;;;;18.92;9.50;;;;;;;-1.51;100.00;96928.59;4211773;27;20050;-72
2021/11/29 01:38:59;;;;;;;20.02;10.55;;;;;;;-1.48;100.00;96934.16;4209825;27;20423;-71
2021/11/29 01:41:00;;;;;;;18.27;10.00;;;;;;;-1.49;100.00;96935.31;4210282;28;20051;-71
2021/11/29 01:43:06;;;;;;;20.48;10.43;;;;;;;-1.46;100.00;96931.13;4208934;27;20061;-71
2021/11/29 01:45:07;;;;;;;16.45;8.75;;;;;;;-1.47;100.00;96943.09;4213857;27;20434;-71
2021/11/29 01:47:08;;;;;;;20.17;9.73;;;;;;;-1.44;100.00;96937.78;4207869;28;20054;-71
2021/11/29 01:49:08;;;;;;;22.73;11.27;;;;;;;-1.42;100.00;96940.94;4204377;28;20044;-71
2021/11/29 01:51:11;;;;;;;21.88;11.07;;;;;;;-1.40;100.00;96937.91;4208840;28;20364;-71
2021/11/29 01:53:12;;;;;;;;;;;;;;;-1.36;100.00;96940.72;4205702;28;20128;-71
2021/11/29 01:55:12;;;;;;;20.27;10.85;;;;;;;-1.32;100.00;96938.94;4204486;28;20380;-71
2021/11/29 01:57:13;;;;;;;19.40;10.88;;;;;;;-1.32;100.00;96936.22;4211161;28;20479;-71
2021/11/29 01:59:14;;;;;;;19.20;9.85;;;;;;;-1.32;100.00;96933.50;4204393;27;20480;-71
2021/11/29 02:01:18;;;;;;;19.77;10.45;;;;;;;-1.31;100.00;96938.59;4205599;28;20531;-71
2021/11/29 02:03:23;;;;;;;22.00;11.30;;;;;;;-1.34;100.00;96933.03;4206359;28;20407;-71
2021/11/29 02:05:25;;;;;;;21.45;11.50;;;;;;;-1.24;100.00;96936.13;4205521;28;20775;-71
2021/11/29 02:07:27;;;;;;;25.55;11.40;;;;;;;-1.26;100.00;96930.22;4207809;28;20077;-71
2021/11/29 02:09:27;;;;;;;23.75;11.70;;;;;;;-1.26;100.00;96940.28;4206966;28;20073;-71
2021/11/29 02:11:28;;;;;;;27.25;12.95;;;;;;;-1.24;100.00;96941.53;4207674;28;20032;-71
2021/11/29 02:13:29;;;;;;;27.20;12.65;;;;;;;-1.17;100.00;96947.19;4207452;28;20067;-71
2021/11/29 02:15:29;;;;;;;26.33;13.23;;;;;;;-1.18;100.00;96936.66;4205159;28;20369;-71
2021/11/29 02:17:30;;;;;;;26.80;14.05;;;;;;;-1.13;100.00;96939.16;4205133;28;20055;-71
2021/11/29 02:19:38;;;;;;;27.35;12.23;;;;;;;-1.02;100.00;96942.22;4206346;27;20102;-71
2021/11/29 02:21:38;;;;;;;26.63;13.02;;;;;;;-1.03;100.00;96946.06;4205352;28;20035;-71
2021/11/29 02:23:42;;;;;;;25.67;12.23;;;;;;;-1.03;100.00;96948.78;4203793;28;20382;-71
2021/11/29 02:25:43;;;;;;;25.05;11.77;;;;;;;-1.06;100.00;96944.81;4210209;28;20120;-71
2021/11/29 02:27:45;;;;;;;24.08;11.65;;;;;;;-1.05;100.00;96943.69;4206026;28;20082;-71
2021/11/29 02:29:46;;;;;;;27.92;12.65;;;;;;;-1.02;100.00;96947.63;4207059;27;20059;-71
2021/11/29 02:31:48;;;;;;;26.15;13.02;;;;;;;-0.94;100.00;96952.94;4206663;27;20063;-71
2021/11/29 02:33:49;;;;;;;;;;;;;;;-0.94;100.00;96944.81;4209971;27;20142;-71
2021/11/29 02:35:49;;;;;;;27.98;13.30;;;;;;;-0.91;100.00;96944.16;4208541;27;19970;-71
2021/11/29 02:37:51;;;;;;;30.52;12.13;;;;;;;-0.85;100.00;96947.41;4208015;28;20392;-71
2021/11/29 02:39:52;;;;;;;22.70;10.95;;;;;;;-0.83;100.00;96949.78;4213524;27;20398;-71
2021/11/29 02:41:57;;;;;;;27.17;13.27;;;;;;;-0.89;100.00;96944.59;4210380;27;20047;-71
2021/11/29 02:43:57;;;;;;;28.13;13.43;;;;;;;-0.87;100.00;96960.53;4207501;27;20044;-71
2021/11/29 02:45:58;;;;;;;21.35;11.30;;;;;;;-0.87;100.00;96957.81;4207875;27;20036;-71
2021/11/29 02:47:58;;;;;;;24.70;11.60;;;;;;;-0.84;100.00;96954.41;4208552;27;20096;-71
2021/11/29 02:49:59;;;;;;;25.15;12.70;;;;;;;-0.78;100.00;96960.41;4206628;27;20101;-71
2021/11/29 02:52:06;;;;;;;24.55;11.82;;;;;;;-0.78;100.00;96957.69;4208365;27;20085;-71
2021/11/29 02:54:14;;;;;;;24.95;11.80;;;;;;;-0.80;100.00;96955.34;4207985;27;20161;-71
2021/11/29 02:56:15;;;;;;;21.98;11.05;;;;;;;-0.83;100.00;96955.19;4211044;27;20451;-71
2021/11/29 02:58:16;;;;;;;22.27;11.90;;;;;;;-0.83;100.00;96956.00;4206728;27;20448;-71
2021/11/29 03:00:16;;;;;;;20.08;10.45;;;;;;;-0.83;100.00;96963.34;4209170;27;20058;-71
2021/11/29 03:02:19;;;;;;;23.63;11.55;;;;;;;-0.86;100.00;96962.13;4209088;27;20031;-71
2021/11/29 03:04:21;;;;;;;24.05;11.57;;;;;;;-0.87;100.00;96965.97;4207799;27;20024;-71
2021/11/29 03:06:22;;;;;;;23.17;12.13;;;;;;;-0.91;100.00;96956.91;4208938;27;20059;-71
2021/11/29 03:08:22;;;;;;;25.23;12.23;;;;;;;-0.91;100.00;96971.31;4207037;27;20032;-71
2021/11/29 03:10:22;;;;;;;24.50;11.88;;;;;;;-0.92;100.00;96966.19;4207821;27;20036;-71
2021/11/29 03:12:23;;;;;;;22.42;11.13;;;;;;;-0.91;100.00;96967.75;4206486;27;20112;-71
2021/11/29 03:14:24;;;;;;;21.70;11.32;;;;;;;-0.92;100.00;96969.69;4208296;27;20110;-72
2021/11/29 03:16:25;;;;;;;23.85;11.57;;;;;;;-0.93;100.00;96962.69;4214476;27;20043;-71
2021/11/29 03:18:33;;;;;;;23.67;11.50;;;;;;;-0.94;100.00;96963.81;4206398;27;20066;-71
2021/11/29 03:20:33;;;;;;;25.88;11.20;;;;;;;-0.92;100.00;96964.25;4205119;28;20125;-71
2021/11/29 03:22:34;;;;;;;20.42;10.90;;;;;;;-0.89;100.00;96963.59;4208894;27;20539;-71
2021/11/29 03:24:34;;;;;;;24.77;10.32;;;;;;;-0.88;100.00;96958.97;4208925;27;20040;-71
2021/11/29 03:26:36;;;;;;;19.38;10.45;;;;;;;-0.88;100.00;96967.09;4205562;27;20040;-71
2021/11/29 03:28:38;;;;;;;24.85;10.60;;;;;;;-0.86;100.00;96960.19;4209084;27;20055;-71
2021/11/29 03:30:39;;;;;;;18.83;9.45;;;;;;;-0.87;100.00;96961.31;4208399;27;20375;-71
2021/11/29 03:32:39;;;;;;;20.20;9.68;;;;;;;-0.88;100.00;96953.53;4206561;27;20036;-71
2021/11/29 03:34:40;;;;;;;20.63;10.40;;;;;;;-0.81;100.00;96969.25;4208427;27;20050;-71
2021/11/29 03:36:45;;;;;;;16.80;9.48;;;;;;;-0.83;100.00;96964.13;4211705;27;20154;-71
2021/11/29 03:38:45;;;;;;;17.85;9.43;;;;;;;-0.82;100.00;96968.47;4206858;27;20096;-71
2021/11/29 03:40:45;;;;;;;18.38;10.25;;;;;;;-0.86;100.00;96972.97;4205915;27;20436;-71
2021/11/29 03:42:46;;;;;;;21.77;10.50;;;;;;;-0.85;100.00;96971.84;4212768;27;20046;-71
2021/11/29 03:44:46;;;;;;;21.83;11.05;;;;;;;-0.81;100.00;96983.63;4206399;27;20047;-71
2021/11/29 03:46:49;;;;;;;21.83;10.80;;;;;;;-0.78;100.00;96977.50;4206683;27;20487;-71
2021/11/29 03:48:49;;;;;;;19.92;10.45;;;;;;;-0.78;100.00;96977.50;4206956;28;20067;-71
2021/11/29 03:50:50;;;;;;;19.55;9.52;;;;;;;-0.78;100.00;96979.44;4208955;27;20044;-72
2021/11/29 03:52:50;;;;;;;21.10;10.77;;;;;;;-0.74;100.00;96983.84;4206449;27;20037;-71
2021/11/29 03:54:52;;;;;;;20.48;10.27;;;;;;;-0.75;100.00;96987.66;4208670;27;20052;-71
2021/11/29 03:56:52;;;;;;;20.77;9.90;;;;;;;-0.76;100.00;96988.81;4207463;27;20048;-71
2021/11/29 03:58:53;;;;;;;20.45;10.50;;;;;;;-0.76;100.00;96985.31;4205954;27;20516;-71
2021/11/29 04:00:54;;;;;;;20.48;10.43;;;;;;;-0.70;100.00;96995.59;4208846;27;20123;-71
2021/11/29 04:02:54;;;;;;;19.42;9.63;;;;;;;-0.70;100.00;96995.59;4209612;27;20055;-71
2021/11/29 04:04:55;;;;;;;15.85;9.00;;;;;;;-0.64;100.00;96991.53;4208787;27;20534;-71
2021/11/29 04:06:55;;;;;;;19.90;9.43;;;;;;;-0.66;100.00;96993.81;4210001;27;20039;-71
2021/11/29 04:08:56;;;;;;;18.83;8.88;;;;;;;-0.59;100.00;96993.22;4208541;27;20059;-71
2021/11/29 04:10:57;;;;;;;17.80;9.00;;;;;;;-0.62;100.00;97005.56;4209717;27;20079;-71
2021/11/29 04:12:57;;;;;;;22.33;10.02;;;;;;;-0.64;100.00;96996.97;4210912;27;20032;-71
2021/11/29 04:14:57;;;;;;;19.50;10.52;;;;;;;-0.64;100.00;97001.59;4210459;27;20044;-71
2021/11/29 04:16:58;;;;;;;21.08;10.65;;;;;;;-0.62;100.00;96999.34;4208739;27;20044;-71
2021/11/29 04:18:58;;;;;;;23.77;11.70;;;;;;;-0.58;100.00;97000.22;4206979;27;20056;-71
2021/11/29 04:20:59;;;;;;;18.25;9.65;;;;;;;-0.58;100.00;96994.78;4209905;27;20524;-71
2021/11/29 04:23:00;;;;;;;16.35;9.55;;;;;;;-0.53;100.00;96999.22;4208021;27;20420;-71
2021/11/29 04:25:02;;;;;;;20.77;9.90;;;;;;;-0.52;100.00;97003.50;4210535;27;20036;-71
2021/11/29 04:27:05;;;;;;;20.98;10.40;;;;;;;-0.49;100.00;97002.84;4207019;27;20038;-71
2021/11/29 04:29:17;;;;;;;20.17;10.02;;;;;;;-0.34;100.00;97000.19;4208782;27;20302;-71
2021/11/29 04:31:18;;;;;;;17.90;8.88;;;;;;;-0.38;100.00;97010.19;4208891;27;20050;-71
2021/11/29 04:33:19;;;;;;;22.77;10.38;;;;;;;-0.47;100.00;97004.06;4209022;27;20051;-71
2021/11/29 04:35:20;;;;;;;18.77;9.82;;;;;;;-0.47;100.00;97000.56;4205446;27;20464;-71
2021/11/29 04:37:20;;;;;;;21.60;9.80;;;;;;;-0.39;100.00;97010.53;4209177;27;20088;-71
2021/11/29 04:39:22;;;;;;;17.98;9.52;;;;;;;-0.48;100.00;97007.94;4208601;27;20126;-72
2021/11/29 04:41:23;;;;;;;18.88;9.38;;;;;;;-0.43;100.00;97010.41;4206006;28;20040;-71
2021/11/29 04:43:23;;;;;;;19.27;8.95;;;;;;;-0.44;100.00;97011.53;4207709;27;20347;-71
2021/11/29 04:45:24;;;;;;;20.27;9.82;;;;;;;-0.37;100.00;97010.97;4207844;27;20040;-71
2021/11/29 04:47:24;;;;;;;20.67;9.57;;;;;;;-0.40;100.00;97012.44;4208877;27;20127;-71
2021/11/29 04:49:25;;;;;;;16.35;8.57;;;;;;;-0.42;100.00;97016.63;4206667;27;20032;-71
2021/11/29 04:51:25;;;;;;;19.58;10.00;;;;;;;-0.35;100.00;97022.28;4207236;27;20040;-71
2021/11/29 04:53:26;;;;;;;19.90;10.02;;;;;;;-0.38;100.00;97017.53;4208670;28;20047;-71
2021/11/29 04:55:26;;;;;;;16.92;9.00;;;;;;;-0.33;100.00;97020.81;4208714;28;20043;-71
2021/11/29 04:57:27;;;;;;;19.85;9.63;;;;;;;-0.38;100.00;97022.97;4207611;27;20437;-71
2021/11/29 04:59:27;;;;;;;16.27;8.63;;;;;;;-0.36;100.00;97018.78;4209275;27;20138;-71
2021/11/29 05:01:28;;;;;;;15.23;9.02;;;;;;;-0.36;100.00;97026.94;4209027;27;20254;-71
2021/11/29 05:03:28;;;;;;;18.20;9.75;;;;;;;-0.34;100.00;97026.56;4208678;27;20032;-71
2021/11/29 05:05:29;;;;;;;19.83;10.65;;;;;;;-0.37;100.00;97027.28;4208663;27;20035;-71
2021/11/29 05:07:29;;;;;;;17.17;8.95;;;;;;;-0.29;100.00;97032.59;4207766;28;20756;-71
2021/11/29 05:09:30;;;;;;;16.00;8.85;;;;;;;-0.31;100.00;97031.34;4206266;28;20079;-71
2021/11/29 05:11:30;;;;;;;18.73;9.55;;;;;;;-0.35;100.00;97031.22;4208086;28;20129;-72
2021/11/29 05:13:31;;;;;;;17.55;9.57;;;;;;;-0.32;100.00;97032.47;4207683;28;20492;-71
2021/11/29 05:15:31;;;;;;;22.33;11.02;;;;;;;-0.32;100.00;97035.19;4207679;27;20055;-71
2021/11/29 05:17:32;;;;;;;20.27;9.80;;;;;;;-0.34;100.00;97035.53;4208522;28;20647;-72
2021/11/29 05:19:32;;;;;;;17.73;8.75;;;;;;;-0.28;100.00;97046.97;4206420;27;20070;-71
2021/11/29 05:21:33;;;;;;;18.88;9.25;;;;;;;-0.35;100.00;97038.59;4210295;28;20059;-71
2021/11/29 05:23:33;;;;;;;15.75;7.90;;;;;;;-0.33;100.00;97050.72;4207623;28;20040;-71
2021/11/29 05:25:34;;;;;;;20.63;9.00;;;;;;;-0.34;100.00;97042.88;4207950;28;20334;-71
2021/11/29 05:27:35;;;;;;;19.17;9.45;;;;;;;-0.38;100.00;97053.66;4207353;28;20051;-71
2021/11/29 05:29:35;;;;;;;16.02;8.35;;;;;;;-0.41;100.00;97043.47;4207903;27;20096;-71
2021/11/29 05:31:36;;;;;;;18.77;9.55;;;;;;;-0.46;100.00;97045.63;4207727;28;20068;-71
2021/11/29 05:33:36;;;;;;;14.32;7.53;;;;;;;-0.41;100.00;97048.91;4204338;28;20472;-71
2021/11/29 05:35:37;;;;;;;16.88;8.90;;;;;;;-0.44;100.00;97051.50;4205790;28;20032;-71
2021/11/29 05:37:38;;;;;;;14.20;7.95;;;;;;;-0.45;100.00;97056.16;4204193;28;20048;-71
2021/11/29 05:39:38;;;;;;;19.20;8.90;;;;;;;-0.48;100.00;97047.91;4211859;27;20047;-71
2021/11/29 05:41:38;;;;;;;14.25;8.25;;;;;;;-0.49;100.00;97063.41;4212639;27;20043;-71
2021/11/29 05:43:39;;;;;;;12.98;6.97;;;;;;;-0.46;100.00;97056.50;4210945;28;20040;-71
2021/11/29 05:45:40;;;;;;;14.35;6.80;;;;;;;-0.44;100.00;97065.88;4212647;28;20100;-71
2021/11/29 05:47:42;;;;;;;13.70;7.38;;;;;;;-0.40;100.00;97066.00;4208456;28;20032;-71
2021/11/29 05:49:42;;;;;;;13.35;6.70;;;;;;;-0.35;100.00;97068.47;4211258;28;20515;-71
2021/11/29 05:51:44;;;;;;;13.65;6.03;;;;;;;-0.33;100.00;97068.94;4207591;28;20032;-71
2021/11/29 05:53:47;;;;;;;13.07;6.85;;;;;;;-0.35;100.00;97071.97;4210072;27;20163;-71
2021/11/29 05:55:47;;;;;;;11.27;5.90;;;;;;;-0.25;100.00;97078.09;4203934;28;20055;-71
2021/11/29 05:57:48;;;;;;;10.60;6.63;;;;;;;-0.39;100.00;97079.25;4204266;28;20045;-71
2021/11/29 05:59:48;;;;;;;9.25;5.30;;;;;;;-0.47;100.00;97082.88;4208745;28;20066;-71
2021/11/29 06:01:49;;;;;;;11.93;6.28;;;;;;;-0.50;100.00;97086.25;4210637;27;20303;-71
2021/11/29 06:03:50;;;;;;;12.52;6.13;;;;;;;-0.53;100.00;97086.16;4210029;27;20052;-71
2021/11/29 06:05:51;;;;;;;40.35;21.08;;;;;;;-0.58;100.00;97085.25;4212903;27;20036;-71
2021/11/29 06:07:52;;;;;;;50.50;27.90;;;;;;;-0.55;100.00;97089.22;4208920;27;20620;-72
2021/11/29 06:09:52;;;;;;;25.52;16.40;;;;;;;-0.57;100.00;97100.44;4205910;27;20272;-71
2021/11/29 06:11:53;;;;;;;13.45;8.68;;;;;;;-0.52;100.00;97093.97;4210326;27;20047;-71
2021/11/29 06:13:53;;;;;;;8.20;5.03;;;;;;;-0.46;100.00;97098.03;4209453;27;20036;-71
2021/11/29 06:15:53;;;;;;;8.07;4.93;;;;;;;-0.42;100.00;97103.56;4206195;27;20055;-71
2021/11/29 06:17:54;;;;;;;12.18;6.03;;;;;;;-0.43;100.00;97110.94;4207690;27;20040;-71
2021/11/29 06:19:54;;;;;;;9.70;4.43;;;;;;;-0.38;100.00;97112.66;4211520;27;20043;-71
2021/11/29 06:21:55;;;;;;;9.73;5.78;;;;;;;-0.41;100.00;97108.69;4208085;27;20036;-72
2021/11/29 06:23:56;;;;;;;8.70;5.20;;;;;;;-0.46;100.00;97111.63;4210611;27;20093;-71
2021/11/29 06:25:56;;;;;;;10.75;5.50;;;;;;;-0.47;100.00;97118.19;4208698;27;20362;-71
2021/11/29 06:27:57;;;;;;;11.00;4.85;;;;;;;-0.38;100.00;97115.38;4209405;27;20047;-71
2021/11/29 06:29:57;;;;;;;8.68;4.53;;;;;;;-0.30;100.00;97125.34;4205291;27;20051;-71
2021/11/29 06:31:58;;;;;;;10.00;4.70;;;;;;;-0.35;100.00;97118.19;4211749;27;20036;-71
2021/11/29 06:33:58;;;;;;;11.93;3.85;;;;;;;-0.31;100.00;97118.31;4208642;27;20063;-71
2021/11/29 06:36:00;;;;;;;10.07;4.63;;;;;;;-0.31;100.00;97126.47;4206133;27;20040;-71
2021/11/29 06:38:04;;;;;;;9.10;3.97;;;;;;;-0.31;100.00;97118.31;4209707;27;20784;-71
2021/11/29 06:40:06;;;;;;;11.77;4.43;;;;;;;-0.35;100.00;97122.84;4210894;27;20518;-71
2021/11/29 06:42:07;;;;;;;9.05;4.05;;;;;;;-0.29;100.00;97124.19;4209261;27;20541;-71
2021/11/29 06:44:08;;;;;;;10.93;5.38;;;;;;;-0.36;100.00;97122.03;4207684;27;20036;-72
2021/11/29 06:46:08;;;;;;;11.68;4.55;;;;;;;-0.37;100.00;97125.09;4208733;27;20034;-72
2021/11/29 06:48:09;;;;;;;10.40;5.25;;;;;;;-0.39;100.00;97120.00;4207680;27;20051;-71
2021/11/29 06:50:10;;;;;;;12.70;5.18;;;;;;;-0.38;100.00;97129.75;4207665;27;20028;-71
2021/11/29 06:52:11;;;;;;;12.18;6.05;;;;;;;-0.37;100.00;97134.03;4207701;27;20028;-71
2021/11/29 06:54:11;;;;;;;10.52;5.28;;;;;;;-0.39;100.00;97127.38;4208119;27;20046;-71
2021/11/29 06:56:12;;;;;;;10.38;5.45;;;;;;;-0.35;100.00;97131.78;4207937;27;20394;-71
2021/11/29 06:58:12;;;;;;;8.80;5.32;;;;;;;-0.33;99.86;97134.19;4210283;27;20333;-71
2021/11/29 07:00:20;;;;;;;11.73;5.38;;;;;;;-0.29;98.93;97138.59;4209312;27;20028;-71
2021/11/29 07:02:26;;;;;;;10.55;4.07;;;;;;;-0.28;97.84;97140.16;4206987;27;20365;-71
2021/11/29 07:04:27;;;;;;;8.77;4.82;;;;;;;-0.25;98.08;97140.59;4209159;27;20048;-71
2021/11/29 07:06:27;;;;;;;6.28;3.63;;;;;;;-0.25;97.85;97149.56;4206842;27;20039;-71
2021/11/29 07:08:28;;;;;;;6.72;3.80;;;;;;;-0.20;97.54;97156.69;4208749;27;20090;-71
2021/11/29 07:10:29;;;;;;;7.13;4.38;;;;;;;-0.15;97.52;97151.84;4207294;27;20085;-71
2021/11/29 07:12:29;;;;;;;9.93;4.55;;;;;;;-0.12;97.15;97162.03;4207080;27;20477;-71
2021/11/29 07:14:30;;;;;;;15.95;7.85;;;;;;;-0.18;97.78;97166.09;4208131;27;20359;-71
2021/11/29 07:16:32;;;;;;;10.98;4.45;;;;;;;-0.22;98.21;97165.19;4205803;27;20032;-71
2021/11/29 07:18:33;;;;;;;;;;;;;;;-0.21;98.80;97164.06;4209799;27;20047;-71
2021/11/29 07:20:34;;;;;;;7.15;4.05;;;;;;;-0.25;99.10;97170.50;4207990;27;19912;-71
2021/11/29 07:22:36;;;;;;;8.18;4.70;;;;;;;-0.20;99.18;97176.53;4208018;27;20048;-71
2021/11/29 07:24:36;;;;;;;8.32;5.07;;;;;;;-0.22;99.32;97181.50;4205454;27;20076;-71
2021/11/29 07:26:38;;;;;;;10.13;5.13;;;;;;;-0.25;99.53;97182.16;4208919;27;20048;-71
2021/11/29 07:28:38;;;;;;;7.57;4.43;;;;;;;-0.20;98.81;97187.41;4209041;27;20040;-71
2021/11/29 07:30:39;;;;;;;10.77;4.88;;;;;;;-0.20;97.81;97181.97;4209251;27;20040;-71
2021/11/29 07:32:40;;;;;;;10.90;4.43;;;;;;;-0.08;97.00;97189.34;4207051;27;20219;-71
2021/11/29 07:34:40;;;;;;;7.07;4.70;;;;;;;-0.06;96.65;97190.59;4207809;27;20383;-71
2021/11/29 07:36:41;;;;;;;11.95;5.15;;;;;;;-0.07;96.59;97191.72;4207734;27;20055;-71
2021/11/29 07:38:41;;;;;;;9.43;5.28;;;;;;;-0.05;96.10;97194.88;4205313;27;20075;-71
2021/11/29 07:40:42;;;;;;;10.23;5.38;;;;;;;-0.09;96.73;97204.84;4211890;27;20040;-71
2021/11/29 07:42:42;;;;;;;13.15;5.03;;;;;;;-0.22;98.00;97195.09;4208352;27;20447;-71
2021/11/29 07:44:43;;;;;;;10.43;5.32;;;;;;;-0.22;98.67;97197.03;4205343;27;20075;-71
2021/11/29 07:46:43;;;;;;;10.00;4.57;;;;;;;-0.27;99.14;97206.19;4209217;27;20101;-71
2021/11/29 07:48:44;;;;;;;7.88;4.60;;;;;;;-0.17;98.75;97221.25;4206506;27;20122;-71
2021/11/29 07:50:44;;;;;;;7.43;4.53;;;;;;;-0.26;98.90;97218.63;4206467;27;20384;-72
2021/11/29 07:52:46;;;;;;;8.60;5.00;;;;;;;-0.25;98.98;97231.09;4213808;27;20071;-72
2021/11/29 07:54:47;;;;;;;9.13;4.47;;;;;;;-0.26;99.58;97226.00;4208123;27;20483;-71
2021/11/29 07:56:47;;;;;;;9.43;4.28;;;;;;;-0.23;99.14;97226.13;4207143;27;20040;-71
2021/11/29 07:58:48;;;;;;;8.50;5.15;;;;;;;-0.27;99.57;97233.38;4203817;27;20104;-71
2021/11/29 08:00:49;;;;;;;13.40;5.50;;;;;;;-0.21;99.16;97236.66;4209759;27;20400;-71
2021/11/29 08:02:52;;;;;;;9.43;4.97;;;;;;;-0.31;99.83;97235.19;4211160;27;20480;-71
2021/11/29 08:04:53;;;;;;;11.45;6.63;;;;;;;-0.31;99.92;97241.41;4206525;27;20499;-71
2021/11/29 08:06:53;;;;;;;9.63;4.28;;;;;;;-0.32;99.55;97239.84;4209791;28;20097;-71
2021/11/29 08:08:54;;;;;;;10.48;4.95;;;;;;;-0.29;100.00;97246.50;4214012;27;20120;-71
2021/11/29 08:10:54;;;;;;;9.77;5.20;;;;;;;-0.25;99.70;97255.56;4206743;27;20050;-71
2021/11/29 08:12:55;;;;;;;9.93;4.88;;;;;;;-0.33;100.00;97248.31;4206750;27;20109;-71
2021/11/29 08:14:55;;;;;;;7.78;5.00;;;;;;;-0.31;99.81;97246.06;4212077;27;20056;-71
2021/11/29 08:16:56;;;;;;;7.80;4.28;;;;;;;-0.29;100.00;97257.38;4206287;27;20125;-71
2021/11/29 08:18:56;;;;;;;8.27;4.40;;;;;;;-0.34;100.00;97254.88;4205949;27;20040;-72
2021/11/29 08:20:56;;;;;;;9.48;4.95;;;;;;;-0.37;100.00;97259.06;4206393;27;20036;-72
2021/11/29 08:22:57;;;;;;;9.27;4.53;;;;;;;-0.33;100.00;97260.00;4208879;27;20445;-72
2021/11/29 08:24:58;;;;;;;8.93;5.15;;;;;;;-0.35;100.00;97258.72;4208190;27;20102;-72
2021/11/29 08:26:58;;;;;;;10.93;5.05;;;;;;;-0.35;100.00;97262.22;4205080;27;20028;-72
2021/11/29 08:28:59;;;;;;;7.75;4.70;;;;;;;-0.39;100.00;97274.13;4207851;27;20054;-71
2021/11/29 08:30:59;;;;;;;8.65;5.00;;;;;;;-0.38;100.00;97281.16;4205547;27;20423;-71
2021/11/29 08:33:00;;;;;;;13.68;5.13;;;;;;;-0.38;100.00;97264.84;4206272;27;20040;-71
2021/11/29 08:35:00;;;;;;;10.05;4.95;;;;;;;-0.39;100.00;97272.19;4211253;27;20048;-71
2021/11/29 08:37:01;;;;;;;7.35;4.68;;;;;;;-0.39;100.00;97269.47;4205806;27;20076;-71
2021/11/29 08:39:04;;;;;;;11.02;5.20;;;;;;;-0.45;100.00;97273.53;4205504;27;20385;-71
2021/11/29 08:41:04;;;;;;;10.98;4.40;;;;;;;-0.44;100.00;97272.41;4206108;27;20380;-71
2021/11/29 08:43:12;;;;;;;11.23;4.95;;;;;;;-0.44;100.00;97277.84;4207626;27;20601;-71
2021/11/29 08:45:13;;;;;;;10.32;5.45;;;;;;;-0.43;100.00;97289.50;4205840;27;20277;-71
2021/11/29 08:47:13;;;;;;;15.10;4.80;;;;;;;-0.38;100.00;97276.50;4206522;27;20494;-71
2021/11/29 08:49:19;;;;;;;14.82;4.82;;;;;;;-0.41;100.00;97281.81;4206910;27;20039;-71
2021/11/29 08:51:20;;;;;;;11.38;5.50;;;;;;;-0.35;100.00;97281.25;4205886;27;20044;-71
2021/11/29 08:53:24;;;;;;;9.48;5.20;;;;;;;-0.29;100.00;97285.34;4205335;28;20177;-71
2021/11/29 08:55:25;;;;;;;13.98;6.78;;;;;;;-0.30;100.00;97291.13;4208241;27;20479;-71
2021/11/29 08:57:25;;;;;;;14.98;7.57;;;;;;;-0.25;100.00;97293.63;4206134;27;20130;-71
2021/11/29 08:59:26;;;;;;;13.00;5.45;;;;;;;-0.24;99.41;97295.22;4204263;27;20082;-71
2021/11/29 09:01:26;;;;;;;10.05;5.60;;;;;;;-0.20;98.34;97293.41;4206109;28;20749;-71
2021/11/29 09:03:27;;;;;;;15.57;6.18;;;;;;;-0.17;97.97;97291.94;4207446;27;20068;-71
2021/11/29 09:05:28;;;;;;;12.35;6.07;;;;;;;-0.20;97.55;97303.50;4207283;27;20052;-71
2021/11/29 09:07:29;;;;;;;16.08;7.72;;;;;;;-0.24;97.30;97297.94;4204528;28;20074;-71
2021/11/29 09:09:32;;;;;;;10.50;5.80;;;;;;;-0.14;96.81;97307.59;4207158;28;20040;-71
2021/11/29 09:11:32;;;;;;;;;;;;;;;-0.13;96.59;97301.03;4207460;28;20098;-71
2021/11/29 09:13:32;;;;;;;9.90;5.22;;;;;;;-0.09;96.20;97315.53;4204582;28;19912;-71
2021/11/29 09:15:33;;;;;;;9.00;4.90;;;;;;;-0.05;95.37;97308.28;4208773;28;20059;-71
2021/11/29 09:17:34;;;;;;;10.98;4.70;;;;;;;0.11;93.41;97309.22;4211468;27;20433;-71